Time;durP1;ratioP1;P1;durP2;ratioP2;P2;SDS_P1;SDS_P2;PMS_P1;PMS_P2;Temp;Humidity;BMP_temperature;BMP_pressure;BME280_temperature;BME280_humidity;BME280_pressure;Samples;Min_cycle;Max_cycle;Signal;HPM_P1;HPM_P2
2023/03/05 00:01:43;;;;;;;8.47;1.70;;;2.80;99.90;;;;;;4196612;28;20448;-77
2023/03/05 00:03:45;;;;;;;9.93;1.87;;;2.80;99.90;;;;;;4196464;28;20514;-76
2023/03/05 00:05:46;;;;;;;8.03;1.50;;;2.80;99.90;;;;;;4211694;28;20516;-74
2023/03/05 00:07:48;;;;;;;12.90;1.47;;;2.80;99.90;;;;;;4195408;28;20522;-74
2023/03/05 00:09:50;;;;;;;11.07;1.50;;;2.80;99.90;;;;;;4183940;28;20496;-74
2023/03/05 00:11:54;;;;;;;6.23;1.43;;;2.80;99.90;;;;;;4182203;28;20453;-74
2023/03/05 00:13:56;;;;;;;4.63;1.20;;;2.70;99.90;;;;;;4197401;28;20886;-76
2023/03/05 00:15:58;;;;;;;9.00;1.53;;;2.70;99.90;;;;;;4198407;28;20451;-74
2023/03/05 00:18:00;;;;;;;13.27;1.90;;;2.70;99.90;;;;;;4198278;28;20467;-74
2023/03/05 00:20:02;;;;;;;9.33;1.40;;;2.70;99.90;;;;;;4198512;28;20542;-75
2023/03/05 00:22:04;;;;;;;5.53;1.33;;;2.70;99.90;;;;;;4214336;28;20546;-74
2023/03/05 00:24:10;;;;;;;6.60;1.30;;;2.70;99.90;;;;;;4199742;28;20539;-76
2023/03/05 00:26:12;;;;;;;12.10;1.97;;;2.70;99.90;;;;;;4196178;28;20878;-75
2023/03/05 00:28:15;;;;;;;8.53;1.57;;;2.60;99.90;;;;;;4197982;28;20544;-75
2023/03/05 00:30:17;;;;;;;9.67;1.43;;;2.70;99.90;;;;;;4198728;28;20539;-75
2023/03/05 00:32:19;;;;;;;7.40;1.50;;;2.70;99.90;;;;;;4197803;28;20459;-74
2023/03/05 00:34:22;;;;;;;6.43;1.53;;;2.60;99.90;;;;;;4199581;28;20913;-74
2023/03/05 00:36:24;;;;;;;3.20;1.20;;;2.60;99.90;;;;;;4198084;28;20459;-74
2023/03/05 00:38:26;;;;;;;9.00;1.77;;;2.60;99.90;;;;;;4200511;28;20451;-74
2023/03/05 00:40:28;;;;;;;8.10;1.33;;;2.60;99.90;;;;;;4197130;28;20483;-74
2023/03/05 00:42:29;;;;;;;9.03;1.80;;;2.60;99.90;;;;;;4198065;28;20543;-74
2023/03/05 00:44:33;;;;;;;5.13;1.10;;;2.60;99.90;;;;;;4196164;28;20475;-74
2023/03/05 00:46:35;;;;;;;4.83;1.20;;;2.60;99.90;;;;;;4190135;28;20475;-74
2023/03/05 00:48:37;;;;;;;14.17;1.80;;;2.60;99.90;;;;;;4198120;28;20486;-74
2023/03/05 00:50:39;;;;;;;7.50;1.10;;;2.60;99.90;;;;;;4197475;28;20462;-74
2023/03/05 00:52:40;;;;;;;4.77;1.20;;;2.50;99.90;;;;;;4198046;28;21354;-74
2023/03/05 00:54:42;;;;;;;4.37;1.10;;;2.50;99.90;;;;;;4197017;28;20460;-74
2023/03/05 00:56:45;;;;;;;6.73;2.53;;;2.50;99.90;;;;;;4197107;28;20515;-74
2023/03/05 00:58:47;;;;;;;5.93;1.30;;;2.50;99.90;;;;;;4204294;28;20485;-74
2023/03/05 01:00:50;;;;;;;4.60;1.23;;;2.50;99.90;;;;;;4199200;28;20502;-73
2023/03/05 01:02:52;;;;;;;11.77;2.10;;;2.50;99.90;;;;;;4199494;28;20548;-74
2023/03/05 01:04:54;;;;;;;5.37;1.10;;;2.50;99.90;;;;;;4197940;28;20455;-73
2023/03/05 01:06:56;;;;;;;4.70;1.00;;;2.50;99.90;;;;;;4200346;28;20916;-74
2023/03/05 01:08:58;;;;;;;3.83;0.80;;;2.50;99.90;;;;;;4190365;28;20495;-76
2023/03/05 01:11:00;;;;;;;3.53;0.70;;;2.50;99.90;;;;;;4181373;28;21238;-74
2023/03/05 01:13:02;;;;;;;2.80;0.90;;;2.50;99.90;;;;;;4192683;28;20479;-74
2023/03/05 01:15:05;;;;;;;5.97;0.83;;;2.50;99.90;;;;;;4201338;28;20455;-74
2023/03/05 01:17:09;;;;;;;9.07;1.00;;;2.40;99.90;;;;;;4199594;28;20471;-73
2023/03/05 01:19:11;;;;;;;3.60;0.90;;;2.40;99.90;;;;;;4201543;28;20479;-75
2023/03/05 01:21:14;;;;;;;5.83;1.20;;;2.40;99.90;;;;;;4199674;28;20846;-75
2023/03/05 01:23:19;;;;;;;3.10;1.03;;;2.40;99.90;;;;;;4195410;28;20515;-74
2023/03/05 01:25:21;;;;;;;4.90;0.70;;;2.40;99.90;;;;;;4197421;28;20475;-74
2023/03/05 01:27:23;;;;;;;4.23;1.17;;;2.40;99.90;;;;;;4200159;28;20524;-74
2023/03/05 01:29:26;;;;;;;6.43;1.00;;;2.40;99.90;;;;;;4201401;28;20522;-74
2023/03/05 01:31:27;;;;;;;7.60;1.43;;;2.40;99.90;;;;;;4197298;28;20451;-74
2023/03/05 01:33:31;;;;;;;4.23;0.90;;;2.40;99.90;;;;;;4196176;28;20463;-74
2023/03/05 01:35:33;;;;;;;7.70;0.90;;;2.40;99.90;;;;;;4195723;28;20460;-74
2023/03/05 01:37:35;;;;;;;4.83;1.00;;;2.30;99.90;;;;;;4196102;28;20486;-74
2023/03/05 01:39:36;;;;;;;2.83;0.90;;;2.30;99.90;;;;;;4196353;28;20466;-74
2023/03/05 01:41:38;;;;;;;6.40;0.73;;;2.30;99.90;;;;;;4199087;28;20494;-77
2023/03/05 01:43:41;;;;;;;4.53;0.90;;;2.30;99.90;;;;;;4195079;28;20559;-75
2023/03/05 01:46:16;;;;;;;2.57;1.00;;;2.30;99.90;;;;;;4196314;28;20492;-74
2023/03/05 01:48:18;;;;;;;4.53;1.00;;;2.30;99.90;;;;;;4194849;28;20467;-75
2023/03/05 01:50:25;;;;;;;6.23;1.10;;;2.30;99.90;;;;;;4197937;28;20522;-74
2023/03/05 01:52:29;;;;;;;5.63;1.20;;;2.30;99.90;;;;;;4201435;28;20565;-75
2023/03/05 01:54:35;;;;;;;3.73;0.80;;;2.30;99.90;;;;;;4197286;28;20538;-74
2023/03/05 01:56:37;;;;;;;4.80;1.17;;;2.20;99.90;;;;;;4196032;28;20491;-74
2023/03/05 01:58:40;;;;;;;4.87;0.80;;;2.20;99.90;;;;;;4197981;28;20547;-75
2023/03/05 02:00:45;;;;;;;6.47;1.20;;;2.20;99.90;;;;;;4196348;28;20503;-75
2023/03/05 02:02:49;;;;;;;7.43;1.10;;;2.20;99.90;;;;;;4198824;28;20475;-75
2023/03/05 02:04:55;;;;;;;4.17;1.20;;;2.20;99.90;;;;;;4198517;28;20522;-75
2023/03/05 02:07:00;;;;;;;3.83;1.23;;;2.20;99.90;;;;;;4198075;28;20486;-75
2023/03/05 02:09:02;;;;;;;4.23;0.90;;;2.20;99.90;;;;;;4190876;28;21061;-75
2023/03/05 02:11:05;;;;;;;5.60;0.97;;;2.20;99.90;;;;;;4193586;28;20467;-75
2023/03/05 02:13:12;;;;;;;4.20;1.00;;;2.20;99.90;;;;;;4196493;28;20543;-76
2023/03/05 02:15:14;;;;;;;3.43;1.00;;;2.20;99.90;;;;;;4194268;28;20464;-75
2023/03/05 02:17:18;;;;;;;6.77;1.20;;;2.20;99.90;;;;;;4196871;28;20483;-75
2023/03/05 02:19:21;;;;;;;8.17;1.33;;;2.10;99.90;;;;;;4194888;28;20456;-75
2023/03/05 02:21:36;;;;;;;7.10;1.03;;;2.20;99.90;;;;;;4195119;28;20487;-75
2023/03/05 02:23:39;;;;;;;4.27;1.10;;;2.20;99.90;;;;;;4190415;28;20478;-73
2023/03/05 02:25:41;;;;;;;7.77;1.13;;;2.10;99.90;;;;;;4194190;28;20559;-73
2023/03/05 02:27:49;;;;;;;2.67;0.90;;;2.10;99.90;;;;;;4190031;28;20562;-74
2023/03/05 02:29:52;;;;;;;6.77;0.90;;;2.10;99.90;;;;;;4196452;28;20489;-73
2023/03/05 02:31:54;;;;;;;1.47;0.77;;;2.10;99.90;;;;;;4196876;28;20506;-74
2023/03/05 02:33:56;;;;;;;4.70;0.80;;;2.10;99.90;;;;;;4198242;28;20462;-74
2023/03/05 02:35:58;;;;;;;4.10;0.97;;;2.10;99.90;;;;;;4200269;28;20549;-73
2023/03/05 02:38:01;;;;;;;5.00;1.10;;;2.10;99.90;;;;;;4193453;28;20937;-75
2023/03/05 02:40:04;;;;;;;4.97;1.00;;;2.10;99.90;;;;;;4198937;28;20551;-73
2023/03/05 02:42:06;;;;;;;6.83;1.20;;;2.10;99.90;;;;;;4196884;28;20458;-73
2023/03/05 02:44:08;;;;;;;2.70;0.97;;;2.00;99.90;;;;;;4206607;28;20454;-74
2023/03/05 02:46:11;;;;;;;3.70;1.10;;;2.10;99.90;;;;;;4198404;28;21080;-73
2023/03/05 02:48:13;;;;;;;4.73;1.20;;;2.00;99.90;;;;;;4195858;28;20458;-73
2023/03/05 02:50:15;;;;;;;6.80;1.33;;;2.00;99.90;;;;;;4195684;28;20612;-74
2023/03/05 02:52:17;;;;;;;4.50;1.10;;;2.00;99.90;;;;;;4195580;28;20455;-74
2023/03/05 02:54:21;;;;;;;5.23;1.30;;;2.00;99.90;;;;;;4196750;28;21007;-73
2023/03/05 02:56:23;;;;;;;8.27;1.27;;;2.00;99.90;;;;;;4195572;28;20476;-74
2023/03/05 02:58:25;;;;;;;8.13;1.50;;;1.90;99.90;;;;;;4194986;28;20481;-73
2023/03/05 03:00:27;;;;;;;5.27;1.30;;;1.90;99.90;;;;;;4196415;28;20491;-75
2023/03/05 03:02:29;;;;;;;4.97;1.60;;;2.00;99.90;;;;;;4195891;28;21176;-75
2023/03/05 03:04:31;;;;;;;10.10;1.70;;;1.90;99.90;;;;;;4197851;28;21170;-74
2023/03/05 03:06:32;;;;;;;6.50;1.27;;;1.90;99.90;;;;;;4196437;28;21169;-73
2023/03/05 03:08:34;;;;;;;3.13;1.30;;;1.90;99.90;;;;;;4197237;28;20493;-77
2023/03/05 03:10:38;;;;;;;4.97;1.40;;;1.90;99.90;;;;;;4184701;28;20840;-74
2023/03/05 03:12:41;;;;;;;6.67;1.47;;;1.90;99.90;;;;;;4184399;28;20477;-74
2023/03/05 03:14:43;;;;;;;8.67;1.70;;;1.90;99.90;;;;;;4195609;28;20551;-78
2023/03/05 03:16:45;;;;;;;5.03;1.73;;;1.90;99.90;;;;;;4185577;28;20513;-73
2023/03/05 03:18:47;;;;;;;7.83;1.50;;;1.90;99.90;;;;;;4194778;28;21089;-77
2023/03/05 03:20:49;;;;;;;5.17;2.10;;;1.80;99.90;;;;;;4184025;28;20444;-76
2023/03/05 03:22:51;;;;;;;6.67;1.63;;;1.80;99.90;;;;;;4184690;28;20538;-72
2023/03/05 03:24:53;;;;;;;3.90;1.60;;;1.80;99.90;;;;;;4189152;28;20971;-74
2023/03/05 03:26:57;;;;;;;6.77;1.70;;;1.90;99.90;;;;;;4195318;28;21028;-74
2023/03/05 03:28:59;;;;;;;5.13;1.50;;;1.90;99.90;;;;;;4195742;28;20534;-73
2023/03/05 03:31:01;;;;;;;7.77;1.70;;;1.80;99.90;;;;;;4195352;28;20450;-74
2023/03/05 03:33:03;;;;;;;5.83;1.73;;;1.90;99.90;;;;;;4196183;28;20986;-73
2023/03/05 03:35:06;;;;;;;11.53;2.47;;;1.80;99.90;;;;;;4195658;28;20627;-74
2023/03/05 03:37:08;;;;;;;7.43;2.20;;;1.80;99.90;;;;;;4193609;28;20479;-73
2023/03/05 03:39:12;;;;;;;3.83;1.70;;;1.80;99.90;;;;;;4196256;28;20467;-73
2023/03/05 03:41:14;;;;;;;4.47;1.47;;;1.80;99.90;;;;;;4197499;28;20471;-72
2023/03/05 03:43:17;;;;;;;4.73;1.57;;;1.80;99.90;;;;;;4195314;28;20908;-73
2023/03/05 03:45:20;;;;;;;2.77;1.33;;;1.80;99.90;;;;;;4193809;28;20490;-72
2023/03/05 03:47:22;;;;;;;8.73;2.03;;;1.80;99.90;;;;;;4199990;28;20482;-72
2023/03/05 03:49:26;;;;;;;6.87;1.63;;;1.70;99.90;;;;;;4194410;28;20529;-72
2023/03/05 03:51:27;;;;;;;4.30;1.40;;;1.70;99.90;;;;;;4195431;28;20462;-73
2023/03/05 03:53:29;;;;;;;5.40;1.70;;;1.70;99.90;;;;;;4195079;28;20455;-74
2023/03/05 03:55:31;;;;;;;7.67;1.87;;;1.60;99.90;;;;;;4197443;28;20949;-72
2023/03/05 03:57:33;;;;;;;7.77;1.87;;;1.60;99.90;;;;;;4199155;28;20523;-73
2023/03/05 03:59:36;;;;;;;4.17;1.60;;;1.60;99.90;;;;;;4197082;28;20436;-74
2023/03/05 04:01:38;;;;;;;5.10;1.40;;;1.60;99.90;;;;;;4196036;28;20912;-72
2023/03/05 04:03:40;;;;;;;5.37;1.53;;;1.60;99.90;;;;;;4192691;28;20470;-72
2023/03/05 04:05:42;;;;;;;3.40;1.30;;;1.60;99.90;;;;;;4193468;28;20871;-72
2023/03/05 04:07:45;;;;;;;3.80;1.60;;;1.60;99.90;;;;;;4194838;28;20494;-72
2023/03/05 04:09:46;;;;;;;5.87;1.40;;;1.60;99.90;;;;;;4190092;28;20487;-74
2023/03/05 04:11:48;;;;;;;2.67;1.43;;;1.60;99.90;;;;;;4192098;28;20554;-72
2023/03/05 04:13:50;;;;;;;4.10;1.37;;;1.60;99.90;;;;;;4196154;28;20864;-73
2023/03/05 04:15:54;;;;;;;4.73;1.50;;;1.60;99.90;;;;;;4196242;28;20486;-73
2023/03/05 04:17:56;;;;;;;4.80;1.60;;;1.60;99.90;;;;;;4196292;28;20478;-73
2023/03/05 04:19:58;;;;;;;7.80;1.20;;;1.60;99.90;;;;;;4196876;28;20456;-76
2023/03/05 04:22:00;;;;;;;7.80;1.43;;;1.60;99.90;;;;;;4194325;28;20459;-73
2023/03/05 04:24:02;;;;;;;1.73;0.90;;;1.60;99.90;;;;;;4212204;28;20490;-74
2023/03/05 04:26:04;;;;;;;5.43;1.30;;;1.60;99.90;;;;;;4195572;28;20466;-72
2023/03/05 04:28:06;;;;;;;2.60;1.20;;;1.60;99.90;;;;;;4197686;28;20558;-74
2023/03/05 04:30:11;;;;;;;4.43;1.37;;;1.70;99.90;;;;;;4197272;28;20905;-73
2023/03/05 04:32:21;;;;;;;3.63;1.13;;;1.60;99.90;;;;;;4196425;28;20541;-72
2023/03/05 04:34:23;;;;;;;5.00;1.40;;;1.60;99.90;;;;;;4198274;28;20467;-72
2023/03/05 04:36:25;;;;;;;3.70;1.20;;;1.60;99.90;;;;;;4189241;28;20558;-74
2023/03/05 04:38:27;;;;;;;3.03;1.00;;;1.60;99.90;;;;;;4196847;28;20483;-73
2023/03/05 04:40:29;;;;;;;3.03;1.00;;;1.60;99.90;;;;;;4199728;28;20442;-72
2023/03/05 04:42:31;;;;;;;2.73;1.13;;;1.60;99.90;;;;;;4194569;28;20478;-73
2023/03/05 04:44:33;;;;;;;2.27;0.90;;;1.60;99.90;;;;;;4196649;28;20467;-73
2023/03/05 04:46:35;;;;;;;3.17;1.20;;;1.60;99.90;;;;;;4196442;28;20475;-74
2023/03/05 04:48:38;;;;;;;3.93;1.20;;;1.60;99.90;;;;;;4194282;28;20805;-75
2023/03/05 04:50:40;;;;;;;2.60;1.17;;;1.70;99.90;;;;;;4193241;28;20864;-72
2023/03/05 04:52:44;;;;;;;3.60;0.90;;;1.70;99.90;;;;;;4193132;28;20477;-73
2023/03/05 04:54:47;;;;;;;5.93;1.10;;;1.70;99.90;;;;;;4194945;28;20474;-74
2023/03/05 04:56:49;;;;;;;5.70;0.93;;;1.70;99.90;;;;;;4194691;28;20489;-74
2023/03/05 04:58:52;;;;;;;4.57;1.20;;;1.70;99.90;;;;;;4198050;28;20474;-72
2023/03/05 05:00:54;;;;;;;2.60;0.90;;;1.70;99.90;;;;;;4195984;28;20538;-73
2023/03/05 05:02:56;;;;;;;1.60;0.90;;;1.70;99.90;;;;;;4198220;28;20455;-72
2023/03/05 05:04:59;;;;;;;3.10;1.10;;;1.70;99.90;;;;;;4197268;28;20875;-74
2023/03/05 05:07:01;;;;;;;2.83;1.20;;;1.70;99.90;;;;;;4195796;28;20522;-72
2023/03/05 05:09:03;;;;;;;6.43;0.93;;;1.70;99.90;;;;;;4191604;28;20471;-73
2023/03/05 05:11:07;;;;;;;2.50;0.80;;;1.70;99.90;;;;;;4213555;28;20561;-75
2023/03/05 05:13:09;;;;;;;3.93;0.90;;;1.70;99.90;;;;;;4198898;28;20528;-74
2023/03/05 05:15:12;;;;;;;2.77;0.90;;;1.70;99.90;;;;;;4194906;28;21074;-72
2023/03/05 05:17:14;;;;;;;2.53;1.03;;;1.70;99.90;;;;;;4194064;28;20574;-74
2023/03/05 05:19:16;;;;;;;3.27;0.83;;;1.70;99.90;;;;;;4196119;28;20486;-74
2023/03/05 05:21:19;;;;;;;5.80;1.10;;;1.80;99.90;;;;;;4198095;28;20478;-73
2023/03/05 05:23:22;;;;;;;4.97;0.90;;;1.70;99.90;;;;;;4196222;28;20569;-73
2023/03/05 05:25:24;;;;;;;3.00;0.70;;;1.70;99.90;;;;;;4193823;28;20524;-74
2023/03/05 05:27:26;;;;;;;5.30;1.00;;;1.80;99.90;;;;;;4194318;28;20471;-74
2023/03/05 05:29:27;;;;;;;3.70;0.90;;;1.80;99.90;;;;;;4196215;28;20535;-73
2023/03/05 05:31:29;;;;;;;2.00;0.90;;;1.80;99.90;;;;;;4193863;28;20539;-73
2023/03/05 05:33:31;;;;;;;5.80;1.20;;;1.80;99.90;;;;;;4197731;28;20493;-75
2023/03/05 05:35:33;;;;;;;5.07;0.80;;;1.80;99.90;;;;;;4196380;28;20546;-72
2023/03/05 05:37:36;;;;;;;5.93;1.30;;;1.80;99.90;;;;;;4195894;28;20567;-73
2023/03/05 05:39:38;;;;;;;3.87;1.07;;;1.80;99.90;;;;;;4211237;28;20497;-73
2023/03/05 05:41:40;;;;;;;6.83;0.90;;;1.90;99.90;;;;;;4197356;28;20527;-74
2023/03/05 05:43:43;;;;;;;1.13;0.80;;;1.90;99.90;;;;;;4197240;28;20499;-75
2023/03/05 05:45:45;;;;;;;5.23;1.00;;;1.80;99.90;;;;;;4197105;28;20444;-73
2023/03/05 05:47:47;;;;;;;2.63;1.13;;;1.80;99.90;;;;;;4196037;28;20571;-72
2023/03/05 05:49:49;;;;;;;5.00;0.90;;;1.80;99.90;;;;;;4197448;28;20456;-74
2023/03/05 05:51:51;;;;;;;4.63;1.00;;;1.90;99.90;;;;;;4195919;28;20536;-73
2023/03/05 05:53:54;;;;;;;1.30;0.70;;;1.90;99.90;;;;;;4197480;28;20487;-75
2023/03/05 05:55:56;;;;;;;3.37;0.90;;;1.90;99.90;;;;;;4197726;28;20532;-73
2023/03/05 05:57:58;;;;;;;7.10;1.10;;;1.90;99.90;;;;;;4196995;28;20508;-72
2023/03/05 06:00:00;;;;;;;3.27;0.77;;;1.90;99.90;;;;;;4194284;28;20494;-73
2023/03/05 06:02:02;;;;;;;1.90;0.80;;;1.90;99.90;;;;;;4191785;28;20500;-73
2023/03/05 06:04:04;;;;;;;3.20;0.80;;;1.90;99.90;;;;;;4196180;28;20830;-73
2023/03/05 06:06:09;;;;;;;1.47;0.80;;;1.90;99.90;;;;;;4195689;28;20452;-73
2023/03/05 06:08:11;;;;;;;4.30;1.23;;;2.00;99.90;;;;;;4194478;28;20513;-74
2023/03/05 06:10:14;;;;;;;5.07;0.80;;;2.00;99.90;;;;;;4184685;28;20506;-75
2023/03/05 06:12:17;;;;;;;4.70;1.07;;;1.90;99.90;;;;;;4181364;28;20454;-76
2023/03/05 06:14:19;;;;;;;3.23;1.40;;;2.00;99.90;;;;;;4183878;28;20448;-75
2023/03/05 06:16:23;;;;;;;1.80;0.80;;;2.00;99.90;;;;;;4189105;28;20470;-76
2023/03/05 06:18:25;;;;;;;1.80;1.07;;;2.20;99.90;;;;;;4194916;28;20942;-76
2023/03/05 06:20:28;;;;;;;4.10;1.00;;;2.00;99.90;;;;;;4210801;28;20452;-75
2023/03/05 06:22:30;;;;;;;2.60;0.90;;;1.90;99.90;;;;;;4196160;28;20455;-77
2023/03/05 06:24:32;;;;;;;3.07;1.07;;;1.90;99.90;;;;;;4195930;28;20448;-76
2023/03/05 06:26:35;;;;;;;5.00;1.30;;;1.90;99.90;;;;;;4212915;28;20917;-76
2023/03/05 06:28:37;;;;;;;1.83;0.90;;;1.90;99.90;;;;;;4196333;28;20487;-76
2023/03/05 06:30:39;;;;;;;4.97;1.00;;;1.90;99.90;;;;;;4196528;28;20480;-75
2023/03/05 06:32:41;;;;;;;5.10;0.90;;;1.90;99.90;;;;;;4199034;28;20451;-76
2023/03/05 06:34:43;;;;;;;2.37;0.83;;;1.90;99.90;;;;;;4195435;28;20469;-77
2023/03/05 06:36:45;;;;;;;3.10;0.90;;;1.80;99.90;;;;;;4195800;28;20466;-76
2023/03/05 06:38:47;;;;;;;5.67;1.37;;;1.80;99.90;;;;;;4196059;28;20471;-75
2023/03/05 06:40:49;;;;;;;6.67;1.37;;;1.80;99.90;;;;;;4195674;28;20451;-77
2023/03/05 06:42:52;;;;;;;3.73;1.43;;;1.70;99.90;;;;;;4195869;28;20478;-76
2023/03/05 06:44:54;;;;;;;3.63;1.20;;;1.70;99.90;;;;;;4195168;28;20457;-75
2023/03/05 06:46:56;;;;;;;6.77;1.47;;;1.70;99.90;;;;;;4193886;28;20878;-75
2023/03/05 06:49:00;;;;;;;6.53;1.13;;;1.80;99.90;;;;;;4194477;28;21251;-76
2023/03/05 06:51:02;;;;;;;7.03;2.20;;;1.70;99.90;;;;;;4194855;28;20540;-75
2023/03/05 06:53:04;;;;;;;4.73;1.60;;;1.70;99.90;;;;;;4193371;28;20473;-76
2023/03/05 06:55:06;;;;;;;4.97;1.80;;;1.70;99.90;;;;;;4209644;28;20462;-74
2023/03/05 06:57:10;;;;;;;7.70;2.33;;;1.70;99.90;;;;;;4210382;28;20469;-75
2023/03/05 06:59:15;;;;;;;12.67;3.60;;;1.70;99.90;;;;;;4193234;28;20463;-76
2023/03/05 07:01:17;;;;;;;7.27;2.00;;;1.70;99.90;;;;;;4195529;28;20932;-75
2023/03/05 07:03:19;;;;;;;12.20;1.93;;;1.80;99.90;;;;;;4194281;28;20486;-76
2023/03/05 07:05:21;;;;;;;4.90;1.40;;;1.90;99.90;;;;;;4193880;28;20513;-76
2023/03/05 07:07:23;;;;;;;5.10;1.50;;;1.70;99.90;;;;;;4194345;28;20556;-75
2023/03/05 07:09:25;;;;;;;4.67;1.70;;;1.70;99.90;;;;;;4189344;28;20559;-75
2023/03/05 07:11:28;;;;;;;5.27;1.60;;;1.70;99.90;;;;;;4190018;28;20546;-75
2023/03/05 07:13:29;;;;;;;7.67;1.70;;;1.70;99.90;;;;;;4174686;28;20502;-74
2023/03/05 07:15:33;;;;;;;4.90;2.20;;;1.80;99.90;;;;;;4174125;28;20542;-75
2023/03/05 07:17:35;;;;;;;4.63;1.80;;;1.80;99.90;;;;;;4192121;28;20521;-75
2023/03/05 07:19:38;;;;;;;5.97;1.87;;;1.80;99.90;;;;;;4194341;28;20796;-76
2023/03/05 07:21:40;;;;;;;4.87;2.30;;;1.90;99.90;;;;;;4195199;28;20444;-76
2023/03/05 07:23:42;;;;;;;4.40;1.40;;;1.90;99.90;;;;;;4195406;28;20479;-75
2023/03/05 07:25:44;;;;;;;6.80;2.03;;;1.90;99.90;;;;;;4186377;28;20471;-76
2023/03/05 07:27:46;;;;;;;5.90;1.77;;;1.90;99.90;;;;;;4191996;28;20479;-75
2023/03/05 07:29:47;;;;;;;4.93;1.70;;;1.90;99.90;;;;;;4196267;28;20523;-74
2023/03/05 07:31:51;;;;;;;3.70;1.40;;;1.80;99.90;;;;;;4209981;28;20473;-76
2023/03/05 07:33:53;;;;;;;7.53;1.50;;;1.80;99.90;;;;;;4192945;28;20582;-76
2023/03/05 07:35:56;;;;;;;7.17;1.53;;;1.80;99.90;;;;;;4195614;28;20454;-76
2023/03/05 07:37:58;;;;;;;2.37;1.30;;;1.80;99.90;;;;;;4193858;28;20468;-75
2023/03/05 07:40:00;;;;;;;5.97;1.63;;;1.80;99.90;;;;;;4194462;28;20501;-75
2023/03/05 07:42:01;;;;;;;7.70;1.77;;;1.90;99.90;;;;;;4194734;28;20512;-73
2023/03/05 07:44:03;;;;;;;7.43;2.07;;;1.90;99.90;;;;;;4194428;28;21143;-73
2023/03/05 07:46:06;;;;;;;12.00;3.00;;;1.90;99.90;;;;;;4211339;28;20446;-73
2023/03/05 07:48:14;;;;;;;5.57;2.43;;;1.90;99.90;;;;;;4192560;28;20518;-74
2023/03/05 07:50:17;;;;;;;8.27;2.30;;;1.90;99.90;;;;;;4193429;28;20498;-74
2023/03/05 07:52:19;;;;;;;7.37;1.87;;;2.00;99.90;;;;;;4193462;28;20483;-73
2023/03/05 07:54:20;;;;;;;5.83;1.70;;;2.00;99.90;;;;;;4192378;28;20483;-76
2023/03/05 07:56:23;;;;;;;12.60;1.83;;;2.10;99.90;;;;;;4195496;28;20530;-76
2023/03/05 07:58:25;;;;;;;5.57;1.77;;;2.10;99.90;;;;;;4210430;28;20444;-76
2023/03/05 08:00:27;;;;;;;6.70;1.60;;;2.10;99.90;;;;;;4195393;28;20461;-76
2023/03/05 08:02:30;;;;;;;4.60;1.60;;;2.20;99.90;;;;;;4194295;28;20501;-77
2023/03/05 08:04:37;;;;;;;7.73;1.80;;;2.20;99.90;;;;;;4185672;28;20455;-76
2023/03/05 08:06:40;;;;;;;5.40;1.70;;;2.20;99.90;;;;;;4204185;28;20569;-75
2023/03/05 08:08:42;;;;;;;3.67;1.67;;;2.30;99.90;;;;;;4190263;28;21020;-74
2023/03/05 08:10:44;;;;;;;4.80;1.53;;;2.30;99.90;;;;;;4204104;28;20923;-76
2023/03/05 08:12:46;;;;;;;5.37;1.40;;;2.40;99.90;;;;;;4189902;28;20979;-76
2023/03/05 08:14:50;;;;;;;8.47;2.10;;;2.40;99.90;;;;;;4192946;28;20460;-75
2023/03/05 08:16:52;;;;;;;7.47;1.77;;;2.50;99.90;;;;;;4192602;28;20517;-75
2023/03/05 08:18:56;;;;;;;4.20;1.93;;;2.60;99.90;;;;;;4193350;28;20456;-75
2023/03/05 08:20:59;;;;;;;6.40;1.90;;;2.60;99.90;;;;;;4192073;28;20835;-75
2023/03/05 08:23:02;;;;;;;9.57;1.87;;;2.70;99.90;;;;;;4193785;28;21009;-74
2023/03/05 08:25:05;;;;;;;4.37;1.80;;;2.80;99.90;;;;;;4192498;28;20482;-75
2023/03/05 08:27:09;;;;;;;3.57;1.73;;;2.80;99.90;;;;;;4193810;28;20852;-75
2023/03/05 08:29:11;;;;;;;4.83;1.90;;;2.80;99.90;;;;;;4192468;28;20550;-74
2023/03/05 08:31:14;;;;;;;6.03;1.97;;;2.90;99.90;;;;;;4193688;28;20507;-75
2023/03/05 08:33:17;;;;;;;6.47;2.30;;;2.90;99.90;;;;;;4195605;28;20531;-73
2023/03/05 08:35:20;;;;;;;4.80;2.00;;;2.90;99.90;;;;;;4193292;28;20838;-76
2023/03/05 08:37:23;;;;;;;3.67;2.00;;;3.00;99.90;;;;;;4197343;28;20830;-74
2023/03/05 08:39:25;;;;;;;6.30;2.03;;;3.10;99.90;;;;;;4195331;28;20871;-74
2023/03/05 08:41:27;;;;;;;4.23;1.80;;;3.10;99.90;;;;;;4196373;28;20447;-74
2023/03/05 08:43:30;;;;;;;5.77;1.80;;;3.20;99.90;;;;;;4212741;28;21207;-74
2023/03/05 08:45:32;;;;;;;4.77;1.53;;;3.30;99.90;;;;;;4195460;28;20474;-76
2023/03/05 08:47:33;;;;;;;5.37;1.77;;;3.30;99.90;;;;;;4194254;28;20883;-73
2023/03/05 08:49:36;;;;;;;2.63;1.60;;;3.30;99.90;;;;;;4215122;28;20451;-73
2023/03/05 08:51:38;;;;;;;7.73;2.33;;;3.40;99.90;;;;;;4195896;28;20479;-74
2023/03/05 08:53:43;;;;;;;6.43;2.33;;;3.30;99.90;;;;;;4196314;28;20555;-75
2023/03/05 08:55:53;;;;;;;6.30;1.90;;;3.40;99.90;;;;;;4201387;28;20447;-73
2023/03/05 08:57:55;;;;;;;4.00;2.00;;;3.40;99.90;;;;;;4196836;28;20474;-77
2023/03/05 08:59:57;;;;;;;5.10;1.57;;;3.50;99.90;;;;;;4181283;28;20533;-74
2023/03/05 09:02:03;;;;;;;11.80;2.20;;;3.50;99.90;;;;;;4194201;28;22046;-82
2023/03/05 09:04:05;;;;;;;5.10;2.00;;;3.50;99.90;;;;;;4215016;28;20525;-83
2023/03/05 09:06:11;;;;;;;6.17;2.00;;;3.60;99.90;;;;;;4198173;28;20521;-75
2023/03/05 09:08:14;;;;;;;4.97;2.37;;;3.60;99.90;;;;;;4198459;28;20886;-75
2023/03/05 09:10:20;;;;;;;8.00;2.40;;;3.60;99.90;;;;;;4205664;28;20490;-75
2023/03/05 09:12:22;;;;;;;5.87;2.37;;;3.60;99.90;;;;;;4197015;28;20997;-78
2023/03/05 09:14:24;;;;;;;7.03;1.77;;;3.60;99.90;;;;;;4188018;28;20532;-78
2023/03/05 09:16:26;;;;;;;6.30;2.03;;;3.60;99.90;;;;;;4201029;28;20812;-78
2023/03/05 09:18:29;;;;;;;5.53;2.30;;;3.60;99.90;;;;;;4200211;28;20792;-76
2023/03/05 09:20:32;;;;;;;5.97;1.70;;;3.70;99.90;;;;;;4192661;28;20451;-76
2023/03/05 09:22:34;;;;;;;4.57;2.03;;;3.60;99.90;;;;;;4195209;28;20451;-75
2023/03/05 09:24:36;;;;;;;5.87;1.50;;;3.70;99.90;;;;;;4196092;28;21170;-76
2023/03/05 09:26:41;;;;;;;6.03;1.80;;;3.60;99.90;;;;;;4199941;28;20514;-75
2023/03/05 09:28:43;;;;;;;5.60;2.10;;;3.50;99.90;;;;;;4193970;28;20464;-75
2023/03/05 09:30:44;;;;;;;5.83;2.10;;;3.40;99.90;;;;;;4188976;28;20962;-75
2023/03/05 09:32:47;;;;;;;6.37;2.03;;;3.30;99.90;;;;;;4195902;28;20561;-75
2023/03/05 09:34:49;;;;;;;6.57;2.17;;;3.20;99.90;;;;;;4213431;28;20466;-77
2023/03/05 09:36:51;;;;;;;12.70;2.23;;;3.20;99.90;;;;;;4206785;28;20480;-77
2023/03/05 09:38:53;;;;;;;7.30;2.33;;;3.10;99.90;;;;;;4215455;28;20451;-77
2023/03/05 09:41:01;;;;;;;6.93;2.53;;;2.90;99.90;;;;;;4201704;28;20456;-77
2023/03/05 09:43:14;;;;;;;10.63;2.97;;;2.70;99.90;;;;;;4199124;28;20891;-77
2023/03/05 09:45:25;;;;;;;7.27;2.43;;;2.60;99.90;;;;;;4208138;28;20906;-77
2023/03/05 09:47:42;;;;;;;7.27;2.80;;;2.60;99.90;;;;;;4198190;28;20506;-77
2023/03/05 09:49:50;;;;;;;7.60;2.73;;;2.50;99.90;;;;;;4195867;28;21029;-77
2023/03/05 09:52:01;;;;;;;7.20;3.07;;;2.40;99.90;;;;;;4192628;28;20544;-77
2023/03/05 09:54:06;;;;;;;7.33;3.07;;;2.40;99.90;;;;;;4195502;28;20448;-76
2023/03/05 09:56:12;;;;;;;5.53;2.80;;;2.40;99.90;;;;;;4210200;28;20493;-76
2023/03/05 09:58:19;;;;;;;6.83;3.00;;;2.50;99.90;;;;;;4195207;28;20464;-76
2023/03/05 10:00:32;;;;;;;12.03;4.17;;;2.50;99.90;;;;;;4194942;28;20455;-76
2023/03/05 10:02:37;;;;;;;10.37;4.20;;;2.60;99.90;;;;;;4190276;28;20526;-77
2023/03/05 10:04:45;;;;;;;8.60;4.03;;;2.70;99.90;;;;;;4194023;28;20562;-76
2023/03/05 10:06:51;;;;;;;9.37;3.83;;;2.70;99.90;;;;;;4193279;28;21066;-76
2023/03/05 10:08:57;;;;;;;7.27;2.80;;;2.70;99.90;;;;;;4208556;28;20473;-82
2023/03/05 10:11:05;;;;;;;11.50;3.57;;;2.70;99.90;;;;;;4185233;28;20505;-81
2023/03/05 10:13:15;;;;;;;5.20;2.90;;;2.80;99.90;;;;;;4206993;28;20498;-80
2023/03/05 10:15:29;;;;;;;7.27;3.00;;;2.80;99.90;;;;;;4196507;28;20529;-76
2023/03/05 10:17:49;;;;;;;9.50;4.03;;;2.80;99.90;;;;;;4214753;28;20475;-79
2023/03/05 10:20:21;;;;;;;6.67;3.53;;;2.90;99.90;;;;;;4191778;28;20464;-82
2023/03/05 10:22:27;;;;;;;8.03;3.83;;;3.00;99.90;;;;;;4179648;28;20449;-82
2023/03/05 10:24:41;;;;;;;6.90;3.20;;;3.30;99.90;;;;;;4179963;28;20456;-78
2023/03/05 10:26:55;;;;;;;8.40;3.90;;;3.20;99.90;;;;;;4195782;28;20480;-76
2023/03/05 10:29:16;;;;;;;11.60;4.90;;;3.30;99.90;;;;;;4195758;28;20452;-82
2023/03/05 10:31:37;;;;;;;13.33;4.00;;;3.30;99.90;;;;;;4180506;28;20444;-76
2023/03/05 10:33:46;;;;;;;5.97;3.03;;;3.30;99.90;;;;;;4196724;28;20459;-84
2023/03/05 10:36:25;;;;;;;13.67;3.93;;;3.30;99.90;;;;;;4196112;28;20458;-76
2023/03/05 10:38:59;;;;;;;7.30;3.40;;;3.30;99.90;;;;;;4182882;28;20567;-76
2023/03/05 10:41:12;;;;;;;11.27;3.43;;;3.30;99.90;;;;;;4159922;28;20460;-83
2023/03/05 10:43:23;;;;;;;6.30;2.97;;;3.30;99.90;;;;;;4194252;28;20547;-74
2023/03/05 10:45:29;;;;;;;3.77;2.47;;;3.30;99.90;;;;;;4194550;28;20542;-76
2023/03/05 10:47:42;;;;;;;84.93;23.43;;;3.30;99.90;;;;;;4210752;28;20479;-76
2023/03/05 10:49:50;;;;;;;70.10;20.37;;;3.20;99.90;;;;;;4194920;28;20444;-75
2023/03/05 10:51:59;;;;;;;46.83;13.23;;;3.20;99.90;;;;;;4192804;28;20474;-75